createdAt,value
2022-10-19T00:01:10.952Z,23.00
2022-10-19T00:03:38.078Z,23.00
2022-10-19T00:06:14.302Z,23.00
2022-10-19T00:08:42.440Z,23.25
2022-10-19T00:11:10.039Z,24.00
2022-10-19T00:13:45.790Z,23.00
2022-10-19T00:16:15.838Z,23.00
2022-10-19T00:18:43.937Z,23.00
2022-10-19T00:21:13.683Z,23.00
2022-10-19T00:23:41.304Z,23.50
2022-10-19T00:26:08.297Z,24.00
2022-10-19T00:28:35.964Z,23.00
2022-10-19T00:31:08.270Z,23.00
2022-10-19T00:33:35.334Z,23.00
2022-10-19T00:36:02.650Z,22.00
2022-10-19T00:38:29.699Z,22.50
2022-10-19T00:40:56.585Z,23.00
2022-10-19T00:43:26.400Z,22.00
2022-10-19T00:45:53.577Z,22.75
2022-10-19T00:48:28.384Z,23.00
2022-10-19T00:50:56.965Z,23.00
2022-10-19T00:53:26.874Z,23.00
2022-10-19T00:55:54.844Z,23.00
2022-10-19T00:58:21.807Z,23.00
2022-10-19T01:00:48.925Z,23.00
2022-10-19T01:03:16.070Z,23.00
2022-10-19T01:05:43.401Z,24.00
2022-10-19T01:08:11.551Z,24.00
2022-10-19T01:11:12.295Z,23.25
2022-10-19T01:13:57.058Z,23.00
2022-10-19T01:16:49.988Z,23.00
2022-10-19T01:19:33.827Z,23.00
2022-10-19T01:22:20.406Z,23.00
2022-10-19T01:25:05.596Z,23.00
2022-10-19T01:27:53.298Z,24.00
2022-10-19T01:30:37.984Z,24.00
2022-10-19T01:33:07.547Z,23.50
2022-10-19T01:35:43.390Z,24.00
2022-10-19T01:38:26.726Z,24.00
2022-10-19T01:41:17.743Z,24.00
2022-10-19T01:43:53.796Z,24.00
2022-10-19T01:46:38.041Z,24.00
2022-10-19T01:49:19.241Z,23.00
2022-10-19T01:51:53.101Z,23.00
2022-10-19T01:54:23.299Z,23.00
2022-10-19T01:56:52.400Z,24.50
2022-10-19T01:59:21.418Z,23.00
2022-10-19T02:01:51.121Z,24.00
2022-10-19T02:04:21.348Z,24.00
2022-10-19T02:06:50.540Z,24.00
2022-10-19T02:09:17.781Z,23.00
2022-10-19T02:11:57.282Z,24.00
2022-10-19T02:14:30.801Z,23.00
2022-10-19T02:17:10.044Z,23.00
2022-10-19T02:19:38.416Z,23.00
2022-10-19T02:22:06.184Z,22.00
2022-10-19T02:24:33.014Z,21.00
2022-10-19T02:27:00.530Z,22.50
2022-10-19T02:29:28.447Z,23.00
2022-10-19T02:31:55.321Z,23.00
2022-10-19T02:34:22.389Z,23.00
2022-10-19T02:36:49.574Z,24.00
2022-10-19T02:39:16.819Z,24.00
2022-10-19T02:41:59.788Z,24.00
2022-10-19T02:44:34.849Z,24.00
2022-10-19T02:47:23.799Z,23.00
2022-10-19T02:49:51.719Z,23.00
2022-10-19T02:52:18.561Z,23.75
2022-10-19T02:54:45.600Z,24.00
2022-10-19T02:57:38.243Z,23.00
2022-10-19T03:00:06.898Z,24.00
2022-10-19T03:02:33.747Z,24.00
2022-10-19T03:05:00.574Z,23.00
2022-10-19T03:07:27.469Z,22.00
2022-10-19T03:10:00.393Z,22.00
2022-10-19T03:12:27.246Z,23.00
2022-10-19T03:14:54.039Z,23.00
2022-10-19T03:17:21.202Z,23.50
2022-10-19T03:19:48.141Z,24.00
2022-10-19T03:22:15.273Z,23.00
2022-10-19T03:24:42.132Z,22.50
2022-10-19T03:27:09.283Z,22.50
2022-10-19T03:29:42.193Z,24.00
2022-10-19T03:32:09.263Z,23.00
2022-10-19T03:34:36.124Z,23.50
2022-10-19T03:37:03.025Z,24.00
2022-10-19T03:39:29.899Z,23.00
2022-10-19T03:41:56.715Z,23.00
2022-10-19T03:44:23.481Z,23.00
2022-10-19T03:46:50.404Z,24.25
2022-10-19T03:49:17.242Z,23.00
2022-10-19T03:51:44.108Z,22.50
2022-10-19T03:54:16.262Z,23.00
2022-10-19T03:56:43.737Z,23.00
2022-10-19T03:59:14.682Z,23.00
2022-10-19T04:01:44.436Z,22.00
2022-10-19T04:04:15.649Z,22.00
2022-10-19T04:06:44.645Z,23.00
2022-10-19T04:09:19.365Z,23.25
2022-10-19T04:11:46.813Z,24.00
2022-10-19T04:14:22.865Z,23.00
2022-10-19T04:16:59.206Z,24.00
2022-10-19T04:19:26.034Z,23.00
2022-10-19T04:21:52.929Z,23.00
2022-10-19T04:24:19.845Z,23.00
2022-10-19T04:26:56.750Z,23.00
2022-10-19T04:29:29.413Z,23.00
2022-10-19T04:31:57.888Z,24.00
2022-10-19T04:34:24.781Z,23.00
2022-10-19T04:36:53.402Z,23.00
2022-10-19T04:39:20.235Z,23.00
2022-10-19T04:41:58.759Z,23.00
2022-10-19T04:44:25.612Z,23.75
2022-10-19T04:46:52.431Z,23.00
2022-10-19T04:49:20.290Z,23.00
2022-10-19T04:51:47.172Z,23.00
2022-10-19T04:54:14.148Z,23.00
2022-10-19T04:56:41.255Z,23.00
2022-10-19T04:59:09.986Z,23.00
2022-10-19T05:01:36.924Z,22.75
2022-10-19T05:04:05.045Z,23.00
2022-10-19T05:06:32.193Z,24.00
2022-10-19T05:08:59.957Z,23.00
2022-10-19T05:11:27.768Z,24.00
2022-10-19T05:13:55.647Z,23.00
2022-10-19T05:16:23.954Z,23.00
2022-10-19T05:19:20.618Z,23.00
2022-10-19T05:21:47.470Z,23.00
2022-10-19T05:24:14.384Z,24.50
2022-10-19T05:26:43.736Z,23.00
2022-10-19T05:29:31.951Z,23.00
2022-10-19T05:31:58.899Z,23.00
2022-10-19T05:34:25.735Z,23.00
2022-10-19T05:36:55.465Z,23.00
2022-10-19T05:39:22.759Z,24.00
2022-10-19T05:41:49.879Z,23.00
2022-10-19T05:44:19.333Z,24.00
2022-10-19T05:46:50.316Z,24.00
2022-10-19T05:49:19.658Z,24.00
2022-10-19T05:51:46.609Z,24.00
2022-10-19T05:54:14.562Z,25.00
2022-10-19T05:56:42.344Z,24.00
2022-10-19T05:59:13.888Z,23.00
2022-10-19T06:01:40.836Z,23.00
2022-10-19T06:04:07.841Z,23.00
2022-10-19T06:06:34.787Z,24.00
2022-10-19T06:09:01.717Z,24.00
2022-10-19T06:11:31.038Z,24.00
2022-10-19T06:13:59.663Z,24.00
2022-10-19T06:16:28.052Z,23.50
2022-10-19T06:18:56.530Z,23.75
2022-10-19T06:21:28.081Z,23.00
2022-10-19T06:24:02.887Z,24.00
2022-10-19T06:26:31.612Z,24.75
2022-10-19T06:29:00.694Z,24.00
2022-10-19T06:31:29.527Z,24.00
2022-10-19T06:33:56.478Z,24.00
2022-10-19T06:36:26.015Z,23.00
2022-10-19T06:38:53.096Z,23.00
2022-10-19T06:41:20.659Z,24.00
2022-10-19T06:43:55.361Z,24.00
2022-10-19T06:46:26.827Z,24.00
2022-10-19T06:49:02.068Z,24.00
2022-10-19T06:51:31.214Z,24.00
2022-10-19T06:53:58.041Z,24.00
2022-10-19T06:56:28.015Z,24.50
2022-10-19T06:58:59.157Z,24.00
2022-10-19T07:01:40.500Z,24.00
2022-10-19T07:04:08.129Z,24.00
2022-10-19T07:06:35.890Z,24.00
2022-10-19T07:09:05.669Z,22.00
2022-10-19T07:11:32.790Z,24.50
2022-10-19T07:13:59.642Z,24.00
2022-10-19T07:16:26.467Z,24.00
2022-10-19T07:18:53.792Z,24.00
2022-10-19T07:21:26.760Z,24.00
2022-10-19T07:23:54.452Z,24.00
2022-10-19T07:26:24.944Z,23.00
2022-10-19T07:28:58.011Z,23.25
2022-10-19T07:31:32.784Z,24.00
2022-10-19T07:34:09.469Z,24.00
2022-10-19T07:36:59.743Z,25.75
2022-10-19T07:39:26.961Z,25.00
2022-10-19T07:41:54.352Z,24.00
2022-10-19T07:44:24.474Z,24.00
2022-10-19T07:46:52.249Z,25.00
2022-10-19T07:49:25.559Z,24.50
2022-10-19T07:52:01.716Z,24.50
2022-10-19T07:54:29.617Z,24.25
2022-10-19T07:56:58.824Z,24.00
2022-10-19T07:59:26.126Z,25.00
2022-10-19T08:01:53.203Z,24.00
2022-10-19T08:07:07.200Z,24.00
2022-10-19T08:09:52.180Z,25.00
2022-10-19T08:12:20.651Z,25.00
2022-10-19T08:14:47.421Z,24.00
2022-10-19T08:17:40.133Z,24.00
2022-10-19T08:20:08.350Z,24.00
2022-10-19T08:22:35.487Z,24.00
2022-10-19T08:25:03.005Z,24.00
2022-10-19T08:27:29.804Z,24.00
2022-10-19T08:29:56.726Z,25.00
2022-10-19T08:32:23.930Z,25.00
2022-10-19T08:34:50.952Z,25.00
2022-10-19T08:37:32.578Z,24.00
2022-10-19T08:40:06.376Z,24.00
2022-10-19T08:43:13.238Z,24.00
2022-10-19T08:46:24.731Z,24.00
2022-10-19T08:48:53.018Z,24.00
2022-10-19T08:51:22.950Z,24.00
2022-10-19T08:54:00.706Z,24.00
2022-10-19T08:57:00.902Z,24.00
2022-10-19T09:00:06.716Z,23.00
2022-10-19T09:02:53.612Z,24.00
2022-10-19T09:05:52.921Z,25.00
2022-10-19T09:08:21.185Z,25.00
2022-10-19T09:10:53.592Z,24.50
2022-10-19T09:16:20.533Z,24.00
2022-10-19T09:18:57.602Z,23.00
2022-10-19T09:21:47.118Z,23.50
2022-10-19T09:24:36.875Z,24.00
2022-10-19T09:27:18.962Z,24.75
2022-10-19T09:29:56.461Z,24.00
2022-10-19T09:32:31.407Z,24.00
2022-10-19T09:35:20.834Z,24.00
2022-10-19T09:37:50.428Z,24.00
2022-10-19T09:40:24.333Z,23.00
2022-10-19T09:42:51.342Z,23.00
2022-10-19T09:45:23.916Z,25.00
2022-10-19T09:47:50.778Z,25.00
2022-10-19T09:50:23.298Z,24.25
2022-10-19T09:52:56.808Z,24.00
2022-10-19T09:56:00.441Z,25.00
2022-10-19T09:58:32.880Z,25.00
2022-10-19T10:01:02.130Z,24.00
2022-10-19T10:03:31.003Z,24.00
2022-10-19T10:06:02.817Z,25.00
2022-10-19T10:08:33.419Z,25.00
2022-10-19T10:11:10.431Z,24.00
2022-10-19T10:13:43.729Z,24.00
2022-10-19T10:16:15.501Z,24.00
2022-10-19T10:18:55.841Z,25.00
2022-10-19T10:21:26.299Z,24.00
2022-10-19T10:24:00.443Z,24.00
2022-10-19T10:26:28.531Z,24.00
2022-10-19T10:29:26.490Z,24.75
2022-10-19T10:31:58.940Z,25.00
2022-10-19T10:34:49.879Z,25.00
2022-10-19T10:37:20.747Z,25.00
2022-10-19T10:39:56.689Z,25.00
2022-10-19T10:42:34.968Z,24.00
2022-10-19T10:45:03.791Z,24.00
2022-10-19T10:47:31.431Z,25.00
2022-10-19T10:50:27.047Z,24.00
2022-10-19T10:53:02.221Z,24.00
2022-10-19T10:55:38.361Z,24.00
2022-10-19T10:58:16.456Z,23.00
2022-10-19T11:00:45.474Z,24.00
2022-10-19T11:03:22.010Z,24.00
2022-10-19T11:05:56.425Z,24.75
2022-10-19T11:08:46.100Z,24.00
2022-10-19T11:11:26.913Z,23.00
2022-10-19T11:13:59.387Z,23.00
2022-10-19T11:16:35.817Z,23.00
2022-10-19T11:19:20.270Z,22.00
2022-10-19T11:22:27.083Z,23.00
2022-10-19T11:25:38.899Z,23.00
2022-10-19T11:28:24.147Z,24.00
2022-10-19T11:30:57.373Z,24.50
2022-10-19T11:33:38.580Z,24.00
2022-10-19T11:36:32.064Z,24.00
2022-10-19T11:39:18.441Z,23.00
2022-10-19T11:41:59.665Z,23.75
2022-10-19T11:44:35.580Z,23.00
2022-10-19T11:50:54.149Z,23.00
2022-10-19T11:54:01.742Z,23.00
2022-10-19T11:57:01.574Z,24.00
2022-10-19T12:00:13.909Z,24.00
2022-10-19T12:03:06.140Z,24.00
2022-10-19T12:05:51.579Z,23.00
2022-10-19T12:08:40.822Z,23.25
2022-10-19T12:11:10.638Z,23.00
2022-10-19T12:13:47.708Z,24.00
2022-10-19T12:16:17.345Z,23.50
2022-10-19T12:18:50.266Z,23.50
2022-10-19T12:21:41.963Z,24.00
2022-10-19T12:24:18.123Z,23.00
2022-10-19T12:26:46.087Z,23.00
2022-10-19T12:29:19.487Z,23.00
2022-10-19T12:31:47.618Z,24.00
2022-10-19T12:34:32.800Z,23.00
2022-10-19T12:37:43.964Z,23.00
2022-10-19T12:40:25.360Z,24.00
2022-10-19T12:43:23.609Z,23.00
2022-10-19T12:46:10.673Z,23.00
2022-10-19T12:48:37.584Z,22.00
2022-10-19T12:51:10.379Z,22.00
2022-10-19T12:53:46.915Z,23.50
2022-10-19T12:56:26.294Z,23.00
2022-10-19T12:59:01.332Z,23.00
2022-10-19T13:01:34.058Z,23.00
2022-10-19T13:04:09.601Z,23.00
2022-10-19T13:06:43.974Z,23.00
2022-10-19T13:09:24.539Z,24.00
2022-10-19T13:12:19.615Z,24.25
2022-10-19T13:14:58.903Z,24.00
2022-10-19T13:17:53.584Z,24.00
2022-10-19T13:20:20.471Z,23.00
2022-10-19T13:23:07.528Z,23.00
2022-10-19T13:25:38.790Z,23.00
2022-10-19T13:28:08.818Z,24.00
2022-10-19T13:30:35.562Z,23.00
2022-10-19T13:33:27.386Z,23.00
2022-10-19T13:36:00.519Z,24.00
2022-10-19T13:41:18.675Z,23.00
2022-10-19T13:44:08.750Z,23.00
2022-10-19T13:47:01.256Z,23.75
2022-10-19T13:50:01.558Z,22.00
2022-10-19T13:53:06.980Z,23.00
2022-10-19T13:55:52.511Z,23.00
2022-10-19T13:58:19.425Z,23.00
2022-10-19T14:01:12.005Z,23.00
2022-10-19T14:04:15.375Z,23.00
2022-10-19T14:06:57.110Z,23.00
2022-10-19T14:09:57.641Z,23.00
2022-10-19T14:12:28.146Z,21.75
2022-10-19T14:14:55.166Z,23.00
2022-10-19T14:17:27.739Z,22.00
2022-10-19T14:20:01.989Z,23.00
2022-10-19T14:22:31.909Z,24.00
2022-10-19T14:25:17.068Z,23.00
2022-10-19T14:27:47.804Z,23.00
2022-10-19T14:30:44.410Z,22.00
2022-10-19T14:33:16.900Z,23.75
2022-10-19T14:35:50.120Z,23.00
2022-10-19T14:38:30.037Z,22.00
2022-10-19T14:40:57.543Z,23.00
2022-10-19T14:43:53.297Z,23.00
2022-10-19T14:46:31.972Z,23.00
2022-10-19T14:49:04.809Z,22.50
2022-10-19T14:51:58.808Z,23.00
2022-10-19T14:54:34.443Z,22.00
2022-10-19T14:57:29.152Z,23.00
2022-10-19T15:00:01.649Z,23.00
2022-10-19T15:02:42.440Z,24.00
2022-10-19T15:05:20.440Z,22.75
2022-10-19T15:07:48.302Z,22.50
2022-10-19T15:10:23.540Z,22.00
2022-10-19T15:12:52.927Z,22.00
2022-10-19T15:15:27.830Z,22.00
2022-10-19T15:17:56.305Z,23.00
2022-10-19T15:20:30.366Z,23.00
2022-10-19T15:22:58.467Z,22.00
2022-10-19T15:25:36.776Z,21.00
2022-10-19T15:28:37.546Z,20.00
2022-10-19T15:31:15.448Z,20.00
2022-10-19T15:33:55.045Z,20.00
2022-10-19T15:36:23.490Z,20.00
2022-10-19T15:39:17.718Z,20.00
2022-10-19T15:41:52.079Z,19.00
2022-10-19T15:44:43.008Z,20.50
2022-10-19T15:47:20.423Z,20.00
2022-10-19T15:49:56.317Z,19.00
2022-10-19T15:52:28.934Z,19.00
2022-10-19T15:54:58.499Z,19.75
2022-10-19T15:57:34.085Z,19.00
2022-10-19T16:00:17.173Z,21.00
2022-10-19T16:02:44.551Z,21.00
2022-10-19T16:05:12.461Z,21.00
2022-10-19T16:07:42.317Z,21.00
2022-10-19T16:10:17.003Z,21.00
2022-10-19T16:12:44.077Z,20.00
2022-10-19T16:15:16.048Z,22.00
2022-10-19T16:18:07.214Z,22.00
2022-10-19T16:20:34.288Z,21.25
2022-10-19T16:23:01.101Z,20.00
2022-10-19T16:25:28.144Z,21.00
2022-10-19T16:27:55.008Z,21.00
2022-10-19T16:30:22.367Z,21.00
2022-10-19T16:32:49.568Z,22.00
2022-10-19T16:35:42.212Z,19.00
2022-10-19T16:38:09.198Z,19.00
2022-10-19T16:40:36.186Z,21.25
2022-10-19T16:43:05.566Z,19.00
2022-10-19T16:45:32.823Z,19.00
2022-10-19T16:47:59.689Z,19.00
2022-10-19T16:50:26.573Z,18.00
2022-10-19T16:53:14.239Z,19.25
2022-10-19T16:55:41.456Z,21.75
2022-10-19T16:58:08.421Z,22.00
2022-10-19T17:00:36.003Z,22.00
2022-10-19T17:03:03.129Z,20.00
2022-10-19T17:05:29.947Z,20.00
2022-10-19T17:07:56.930Z,20.00
2022-10-19T17:10:24.663Z,21.00
2022-10-19T17:12:51.525Z,20.00
2022-10-19T17:15:41.449Z,19.00
2022-10-19T17:18:05.656Z,19.00
2022-10-19T17:20:33.604Z,18.00
2022-10-19T17:23:01.004Z,20.00
2022-10-19T17:25:27.993Z,21.00
2022-10-19T17:27:58.107Z,21.00
2022-10-19T17:30:24.929Z,19.00
2022-10-19T17:32:51.761Z,18.00
2022-10-19T17:35:19.014Z,20.00
2022-10-19T17:37:45.851Z,20.00
2022-10-19T17:40:16.812Z,20.00
2022-10-19T17:42:48.176Z,20.00
2022-10-19T17:45:14.988Z,19.00
2022-10-19T17:47:41.904Z,19.00
2022-10-19T17:50:09.312Z,20.75
2022-10-19T17:52:36.174Z,20.00
2022-10-19T17:55:18.508Z,19.00
2022-10-19T17:57:45.593Z,20.00
2022-10-19T18:00:13.254Z,20.00
2022-10-19T18:02:40.389Z,18.00
2022-10-19T18:05:07.865Z,19.00
2022-10-19T18:07:35.192Z,18.00
2022-10-19T18:10:02.278Z,18.00
2022-10-19T18:12:29.296Z,17.50
2022-10-19T18:14:56.121Z,17.00
2022-10-19T18:17:26.896Z,19.00
2022-10-19T18:19:54.800Z,17.25
2022-10-19T18:22:21.574Z,17.00
2022-10-19T18:24:48.480Z,16.00
2022-10-19T18:27:15.629Z,16.00
2022-10-19T18:29:42.502Z,19.00
2022-10-19T18:32:11.257Z,17.75
2022-10-19T18:34:38.723Z,19.75
2022-10-19T18:37:05.540Z,19.00
2022-10-19T18:39:33.148Z,17.00
2022-10-19T18:42:00.155Z,17.00
2022-10-19T18:44:45.754Z,17.00
2022-10-19T18:47:12.673Z,19.00
2022-10-19T18:49:39.495Z,20.00
2022-10-19T18:52:06.691Z,19.50
2022-10-19T18:54:33.838Z,19.00
2022-10-19T18:57:00.780Z,19.50
2022-10-19T19:01:59.534Z,19.00
2022-10-19T19:04:26.571Z,20.50
2022-10-19T19:06:53.546Z,19.00
2022-10-19T19:09:20.595Z,19.00
2022-10-19T19:11:48.033Z,19.00
2022-10-19T19:14:17.859Z,20.00
2022-10-19T19:16:45.553Z,19.00
2022-10-19T19:19:14.540Z,19.00
2022-10-19T19:21:42.443Z,20.00
2022-10-19T19:24:16.496Z,19.75
2022-10-19T19:26:46.779Z,19.00
2022-10-19T19:29:14.104Z,18.50
2022-10-19T19:31:40.996Z,20.00
2022-10-19T19:34:07.979Z,21.00
2022-10-19T19:36:36.049Z,19.00
2022-10-19T19:39:04.492Z,17.50
2022-10-19T19:41:31.560Z,17.00
2022-10-19T19:44:17.647Z,19.00
2022-10-19T19:46:44.735Z,21.00
2022-10-19T19:49:11.907Z,20.50
2022-10-19T19:51:39.036Z,18.50
2022-10-19T19:54:06.155Z,17.00
2022-10-19T19:56:33.224Z,18.00
2022-10-19T19:59:01.431Z,18.00
2022-10-19T20:01:30.679Z,19.00
2022-10-19T20:03:59.105Z,20.00
2022-10-19T20:06:26.961Z,20.00
2022-10-19T20:08:55.322Z,20.00
2022-10-19T20:11:24.125Z,20.00
2022-10-19T20:13:51.013Z,21.75
2022-10-19T20:16:22.751Z,22.00
2022-10-19T20:18:55.864Z,21.00
2022-10-19T20:21:22.670Z,21.00
2022-10-19T20:23:51.229Z,20.00
2022-10-19T20:26:23.043Z,19.00
2022-10-19T20:28:50.678Z,20.00
2022-10-19T20:31:18.555Z,21.00
2022-10-19T20:33:46.585Z,21.00
2022-10-19T20:36:17.238Z,20.00
2022-10-19T20:38:56.366Z,20.00
2022-10-19T20:41:25.901Z,20.00
2022-10-19T20:43:54.122Z,20.00
2022-10-19T20:46:24.221Z,22.00
2022-10-19T20:48:52.237Z,21.00
2022-10-19T20:51:23.044Z,22.00
2022-10-19T20:53:52.861Z,20.00
2022-10-19T20:56:55.364Z,19.00
2022-10-19T20:59:23.539Z,20.00
2022-10-19T21:01:52.242Z,20.00
2022-10-19T21:04:19.846Z,20.00
2022-10-19T21:06:49.221Z,18.00
2022-10-19T21:09:18.619Z,20.00
2022-10-19T21:11:46.342Z,19.00
2022-10-19T21:14:16.091Z,19.00
2022-10-19T21:16:43.120Z,19.00
2022-10-19T21:19:23.584Z,20.00
2022-10-19T21:21:56.961Z,20.00
2022-10-19T21:24:26.851Z,21.00
2022-10-19T21:26:54.082Z,20.00
2022-10-19T21:29:37.673Z,19.00
2022-10-19T21:32:04.574Z,19.00
2022-10-19T21:34:32.121Z,20.25
2022-10-19T21:36:59.756Z,19.00
2022-10-19T21:39:26.617Z,20.75
2022-10-19T21:41:53.515Z,22.00
2022-10-19T21:44:20.719Z,17.50
2022-10-19T21:46:48.049Z,20.00
2022-10-19T21:49:15.122Z,18.00
2022-10-19T21:51:49.095Z,18.00
2022-10-19T21:54:19.200Z,18.00
2022-10-19T21:56:47.487Z,18.00
2022-10-19T21:59:15.334Z,17.00
2022-10-19T22:01:42.284Z,17.00
2022-10-19T22:04:13.248Z,17.50
2022-10-19T22:06:40.972Z,17.00
2022-10-19T22:09:09.831Z,19.00
2022-10-19T22:11:36.921Z,19.25
2022-10-19T22:14:04.831Z,20.00
2022-10-19T22:16:33.457Z,20.00
2022-10-19T22:19:00.279Z,20.00
2022-10-19T22:21:30.043Z,20.00
2022-10-19T22:24:10.472Z,20.00
2022-10-19T22:26:40.584Z,17.25
2022-10-19T22:29:08.461Z,18.00
2022-10-19T22:31:36.907Z,18.00
2022-10-19T22:34:07.337Z,19.00
2022-10-19T22:36:43.658Z,19.00
2022-10-19T22:39:11.062Z,19.75
2022-10-19T22:42:03.965Z,19.00
2022-10-19T22:44:31.170Z,18.00
2022-10-19T22:46:58.740Z,18.00
2022-10-19T22:49:25.611Z,19.00
2022-10-19T22:51:52.436Z,19.00
2022-10-19T22:54:19.420Z,19.00
2022-10-19T22:56:46.227Z,20.00
2022-10-19T22:59:13.170Z,19.00
2022-10-19T23:02:03.641Z,19.00
2022-10-19T23:04:30.713Z,20.00
2022-10-19T23:06:57.529Z,18.50
2022-10-19T23:09:24.443Z,17.00
2022-10-19T23:11:51.252Z,19.00
2022-10-19T23:14:18.172Z,20.00
2022-10-19T23:16:45.013Z,20.00
2022-10-19T23:19:11.961Z,20.00
2022-10-19T23:21:38.849Z,20.00
2022-10-19T23:24:05.906Z,20.00
2022-10-19T23:26:32.743Z,19.00
2022-10-19T23:28:59.647Z,19.00
2022-10-19T23:31:27.348Z,18.00
2022-10-19T23:33:54.867Z,19.00
2022-10-19T23:36:24.476Z,18.00
2022-10-19T23:38:52.280Z,17.00
2022-10-19T23:41:20.164Z,17.00
2022-10-19T23:43:47.072Z,19.00
2022-10-19T23:46:14.793Z,17.00
2022-10-19T23:48:41.773Z,16.00
2022-10-19T23:51:12.282Z,19.00
2022-10-19T23:53:41.513Z,20.00
2022-10-19T23:56:15.901Z,21.00
2022-10-19T23:58:43.085Z,18.00
